Time;durP1;ratioP1;P1;durP2;ratioP2;P2;SDS_P1;SDS_P2;PMS_P1;PMS_P2;Temp;Humidity;BMP_temperature;BMP_pressure;BME280_temperature;BME280_humidity;BME280_pressure;Samples;Min_cycle;Max_cycle;Signal;HPM_P1;HPM_P2
2021/03/09 00:01:24;;;;;;;7.30;4.03;;;;;;;-3.17;54.71;100305.84;1634788;86;21141;-81
2021/03/09 00:03:51;;;;;;;4.20;2.63;;;;;;;-2.66;54.58;100388.56;1628913;86;21205;-81
2021/03/09 00:06:19;;;;;;;4.10;3.13;;;;;;;-2.64;54.60;100381.95;1624868;86;21193;-82
2021/03/09 00:08:46;;;;;;;6.33;3.70;;;;;;;-2.62;54.45;100380.06;1633597;86;21177;-81
2021/03/09 00:11:12;;;;;;;;;;;;;;;-2.63;54.02;100392.28;1625319;86;21401;-81
2021/03/09 00:13:39;;;;;;;4.30;3.67;;;;;;;-2.62;53.91;100395.28;1605142;87;20306;-81
2021/03/09 00:16:06;;;;;;;5.22;3.45;;;;;;;-2.66;53.99;100382.04;1585565;88;21255;-83
2021/03/09 00:18:33;;;;;;;5.33;2.83;;;;;;;-2.62;54.14;100383.53;1590991;88;21273;-84
2021/03/09 00:21:00;;;;;;;;;;;;;;;-2.61;54.05;100380.45;1598246;88;21372;-81
2021/03/09 00:23:28;;;;;;;;;;;;;;;-2.56;54.03;100392.73;1596589;86;20213;-83
2021/03/09 00:25:56;;;;;;;7.37;3.77;;;;;;;-2.57;54.06;100384.04;1592702;88;20232;-83
2021/03/09 00:28:24;;;;;;;6.30;3.47;;;;;;;-2.62;53.98;100370.94;1609396;88;21381;-81
2021/03/09 00:30:50;;;;;;;;;;;;;;;-2.59;54.00;100380.70;1608811;88;21199;-84
2021/03/09 00:33:17;;;;;;;9.47;3.97;;;;;;;-2.59;54.16;100376.78;1609397;87;20387;-82
2021/03/09 00:35:45;;;;;;;;;;;;;;;-2.63;54.10;100381.02;1618666;87;21242;-82
2021/03/09 00:38:12;;;;;;;6.58;4.15;;;;;;;-2.59;54.09;100375.48;1617915;87;20543;-82
2021/03/09 00:40:39;;;;;;;9.50;4.03;;;;;;;-2.62;54.25;100378.31;1620926;87;21268;-83
2021/03/09 00:43:06;;;;;;;;;;;;;;;-2.59;54.27;100374.66;1615226;87;21686;-83
2021/03/09 00:45:34;;;;;;;5.30;3.93;;;;;;;-2.58;54.32;100375.86;1614036;84;20226;-83
2021/03/09 00:48:01;;;;;;;10.37;3.53;;;;;;;-2.65;54.38;100383.73;1621839;87;21216;-80
2021/03/09 00:50:28;;;;;;;5.30;3.23;;;;;;;-2.61;54.25;100381.75;1604682;87;21225;-81
2021/03/09 00:52:56;;;;;;;4.87;3.40;;;;;;;-2.57;54.51;100385.34;1607887;87;21252;-81
2021/03/09 00:55:24;;;;;;;3.63;2.97;;;;;;;-2.52;54.34;100381.59;1618500;86;21943;-82
2021/03/09 00:57:57;;;;;;;4.30;2.73;;;;;;;-2.55;54.45;100386.08;1580291;89;21238;-81
2021/03/09 01:00:25;;;;;;;4.17;3.20;;;;;;;-2.56;54.21;100381.81;1579486;89;21667;-82
2021/03/09 01:02:52;;;;;;;3.87;2.17;;;;;;;-2.53;54.20;100388.59;1563100;89;21753;-82
2021/03/09 01:05:21;;;;;;;2.93;2.37;;;;;;;-2.58;54.28;100394.13;1575619;89;21397;-81
2021/03/09 01:07:48;;;;;;;4.00;1.77;;;;;;;-2.54;54.35;100392.16;1585827;89;21194;-82
2021/03/09 01:10:18;;;;;;;;;;;;;;;-2.51;54.40;100389.80;1571872;89;21868;-82
2021/03/09 01:12:45;;;;;;;3.30;1.40;;;;;;;-2.52;54.34;100381.14;1620774;86;20214;-80
2021/03/09 01:15:12;;;;;;;2.37;2.10;;;;;;;-2.54;54.59;100390.84;1598268;88;21285;-82
2021/03/09 01:17:40;;;;;;;4.10;2.00;;;;;;;-2.56;54.33;100386.20;1603126;89;21235;-80
2021/03/09 01:20:09;;;;;;;3.53;2.80;;;;;;;-2.52;54.43;100386.36;1615153;88;21394;-81
2021/03/09 01:22:36;;;;;;;3.33;2.23;;;;;;;-2.52;54.40;100382.89;1607338;86;22047;-82
2021/03/09 01:25:05;;;;;;;2.83;2.07;;;;;;;-2.49;54.48;100386.13;1614610;87;21278;-81
2021/03/09 01:27:32;;;;;;;2.50;1.70;;;;;;;-2.47;54.73;100388.64;1601516;88;21246;-81
2021/03/09 01:30:00;;;;;;;2.77;1.77;;;;;;;-2.48;54.86;100389.13;1598362;88;21214;-83
2021/03/09 01:32:27;;;;;;;2.20;1.67;;;;;;;-2.46;54.80;100394.25;1599966;87;21244;-81
2021/03/09 01:34:54;;;;;;;4.50;1.90;;;;;;;-2.50;55.02;100394.09;1607529;87;21155;-82
2021/03/09 01:37:21;;;;;;;3.50;2.33;;;;;;;-2.91;54.90;100326.76;1603980;88;21360;-80
2021/03/09 01:39:48;;;;;;;3.23;1.73;;;;;;;-2.50;55.08;100396.22;1607031;88;21320;-81
2021/03/09 01:42:15;;;;;;;;;;;;;;;-2.52;55.12;100405.08;1610181;88;21210;-81
2021/03/09 01:44:42;;;;;;;2.40;1.80;;;;;;;-2.54;55.37;100411.73;1605917;85;20211;-80
2021/03/09 01:47:11;;;;;;;;;;;;;;;-2.61;55.65;100404.77;1599245;88;21248;-81
2021/03/09 01:49:40;;;;;;;2.03;1.23;;;;;;;-2.53;55.62;100406.86;1612403;87;20235;-80
2021/03/09 01:52:10;;;;;;;2.07;1.30;;;;;;;-2.53;55.78;100405.55;1603207;87;21683;-81
2021/03/09 01:54:40;;;;;;;1.77;0.73;;;;;;;-2.55;55.73;100406.95;1602028;87;21215;-82
2021/03/09 01:57:08;;;;;;;3.80;1.77;;;;;;;-2.52;55.86;100407.23;1601291;87;21306;-82
2021/03/09 01:59:39;;;;;;;1.77;1.37;;;;;;;-2.47;56.01;100410.36;1599367;87;21650;-79
2021/03/09 02:02:09;;;;;;;2.83;1.17;;;;;;;-2.44;56.18;100404.11;1590542;87;21123;-80
2021/03/09 02:04:39;;;;;;;3.37;1.10;;;;;;;-2.37;56.05;100414.52;1598700;87;21230;-82
2021/03/09 02:07:06;;;;;;;2.53;1.30;;;;;;;-2.37;56.09;100407.51;1593010;88;21717;-82
2021/03/09 02:09:35;;;;;;;2.07;1.43;;;;;;;-2.35;55.90;100410.02;1593158;88;21414;-83
2021/03/09 02:12:22;;;;;;;1.77;1.30;;;;;;;-2.36;56.03;100415.69;1590130;88;22190;-81
2021/03/09 02:15:00;;;;;;;;;;;;;;;-2.36;56.26;100418.78;1605867;87;21824;-83
2021/03/09 02:17:35;;;;;;;1.90;1.03;;;;;;;-2.36;56.33;100413.56;1581501;88;20331;-82
2021/03/09 02:20:44;;;;;;;2.97;1.47;;;;;;;-2.39;56.54;100417.22;1605745;88;21191;-84
2021/03/09 02:23:48;;;;;;;2.15;1.85;;;;;;;-2.39;56.83;100434.67;1603977;87;21705;-83
2021/03/09 02:27:01;;;;;;;2.53;1.80;;;;;;;-2.36;56.64;100430.05;1580362;89;21911;-83
2021/03/09 02:29:57;;;;;;;2.37;1.50;;;;;;;-2.33;56.88;100418.58;1598435;88;21334;-81
2021/03/09 02:32:26;;;;;;;5.33;1.53;;;;;;;-2.29;56.42;100429.66;1588705;88;21338;-84
2021/03/09 02:34:57;;;;;;;3.80;2.33;;;;;;;-2.30;56.40;100437.11;1608012;87;21874;-81
2021/03/09 02:37:30;;;;;;;3.87;2.23;;;;;;;-2.25;56.26;100431.13;1605103;87;21623;-81
2021/03/09 02:39:58;;;;;;;2.47;1.83;;;;;;;-2.24;56.22;100428.41;1615812;87;21176;-81
2021/03/09 02:42:28;;;;;;;2.60;1.50;;;;;;;-2.22;56.07;100429.14;1614242;88;21174;-80
2021/03/09 02:45:00;;;;;;;2.30;1.60;;;;;;;-2.29;55.98;100429.18;1612613;87;21071;-81
2021/03/09 02:47:29;;;;;;;2.10;1.80;;;;;;;-2.25;55.85;100432.42;1572681;90;21216;-81
2021/03/09 02:49:59;;;;;;;1.67;1.30;;;;;;;-2.26;55.73;100431.59;1577027;89;21194;-80
2021/03/09 02:52:28;;;;;;;2.67;1.50;;;;;;;-2.24;55.69;100438.00;1575900;89;21540;-80
2021/03/09 02:54:57;;;;;;;2.40;1.30;;;;;;;-2.26;55.18;100443.34;1573982;89;21372;-80
2021/03/09 02:57:26;;;;;;;1.97;0.90;;;;;;;-2.29;55.32;100449.24;1608340;87;21090;-81
2021/03/09 02:59:55;;;;;;;1.23;1.07;;;;;;;-2.30;55.55;100451.47;1610302;87;21245;-80
2021/03/09 03:02:22;;;;;;;1.00;0.90;;;;;;;-2.26;55.59;100455.09;1596477;87;21884;-79
2021/03/09 03:04:50;;;;;;;4.07;1.03;;;;;;;-2.21;55.19;100452.16;1601100;87;21382;-80
2021/03/09 03:07:18;;;;;;;1.13;1.03;;;;;;;-2.21;55.09;100459.52;1621242;87;21234;-80
2021/03/09 03:09:47;;;;;;;0.60;0.40;;;;;;;-2.16;54.94;100460.05;1610549;88;21237;-80
2021/03/09 03:12:15;;;;;;;1.00;0.87;;;;;;;-2.17;54.96;100463.63;1613907;87;21161;-84
2021/03/09 03:14:45;;;;;;;2.47;0.93;;;;;;;-2.16;54.94;100460.53;1649077;85;21224;-84
2021/03/09 03:17:15;;;;;;;1.10;1.00;;;;;;;-2.18;54.94;100467.16;1606480;88;21327;-80
2021/03/09 03:19:46;;;;;;;1.80;1.10;;;;;;;-2.19;54.88;100475.09;1611733;88;21807;-80
2021/03/09 03:22:16;;;;;;;1.03;0.80;;;;;;;-2.21;55.02;100469.97;1601142;86;21230;-81
2021/03/09 03:24:44;;;;;;;4.20;3.27;;;;;;;-2.23;55.26;100473.63;1607210;88;21218;-80
2021/03/09 03:27:16;;;;;;;2.80;0.97;;;;;;;-2.21;55.47;100468.66;1607955;88;21254;-79
2021/03/09 03:29:44;;;;;;;1.07;0.43;;;;;;;-2.23;55.64;100472.33;1594861;88;21223;-81
2021/03/09 03:32:15;;;;;;;1.27;0.97;;;;;;;-2.23;55.95;100478.85;1618890;88;22306;-80
2021/03/09 03:34:44;;;;;;;2.10;0.90;;;;;;;-2.28;55.90;100476.56;1617019;85;21241;-80
2021/03/09 03:37:14;;;;;;;1.37;1.17;;;;;;;-2.25;56.00;100481.56;1597950;88;21730;-84
2021/03/09 03:39:42;;;;;;;2.47;0.80;;;;;;;-2.26;56.27;100477.30;1596873;88;21225;-80
2021/03/09 03:42:10;;;;;;;3.03;1.37;;;;;;;-2.31;56.27;100476.75;1586605;88;21399;-80
2021/03/09 03:44:38;;;;;;;1.53;1.23;;;;;;;-2.27;56.41;100491.75;1648493;85;21102;-80
2021/03/09 03:47:04;;;;;;;;;;;;;;;-2.25;56.69;100498.53;1647173;85;21644;-81
2021/03/09 03:49:32;;;;;;;1.37;1.30;;;;;;;-2.22;57.89;100494.42;1643289;85;20189;-79
2021/03/09 03:52:15;;;;;;;1.60;1.50;;;;;;;-2.28;58.17;100500.06;1636572;86;21260;-80
2021/03/09 03:55:03;;;;;;;4.10;1.40;;;;;;;-2.38;58.73;100492.45;1772051;78;23142;-82
2021/03/09 03:57:47;;;;;;;2.70;1.57;;;;;;;-2.39;59.29;100510.38;1741503;82;22237;-82
2021/03/09 04:00:17;;;;;;;2.93;1.60;;;;;;;-2.56;59.62;100508.87;1729707;80;21165;-81
2021/03/09 04:02:50;;;;;;;3.10;2.70;;;;;;;-2.76;60.40;100504.92;1662691;84;22477;-81
2021/03/09 04:05:20;;;;;;;2.30;2.10;;;;;;;-2.79;61.31;100518.16;1630678;87;21318;-81
2021/03/09 04:07:50;;;;;;;2.07;1.83;;;;;;;-2.84;61.58;100530.20;1655308;85;21208;-82
2021/03/09 04:10:18;;;;;;;2.43;2.23;;;;;;;-2.93;61.99;100528.17;1653976;85;21188;-82
2021/03/09 04:12:45;;;;;;;3.07;1.30;;;;;;;-2.94;62.51;100526.04;1682654;82;21060;-82
2021/03/09 04:15:13;;;;;;;2.10;2.00;;;;;;;-2.89;62.63;100529.65;1675271;84;21182;-82
2021/03/09 04:17:42;;;;;;;2.03;1.70;;;;;;;-2.90;62.92;100531.05;1674759;82;21143;-81
2021/03/09 04:20:13;;;;;;;1.60;1.50;;;;;;;-2.91;63.04;100523.69;1698293;84;21157;-82
2021/03/09 04:22:40;;;;;;;1.67;1.40;;;;;;;-2.91;63.22;100534.12;1683321;82;21056;-83
2021/03/09 04:25:09;;;;;;;1.70;1.53;;;;;;;-2.88;63.19;100533.09;1645766;85;21167;-81
2021/03/09 04:27:38;;;;;;;1.83;1.73;;;;;;;-2.90;63.14;100525.83;1654406;85;21220;-83
2021/03/09 04:30:06;;;;;;;2.87;1.97;;;;;;;-2.86;63.07;100533.38;1645523;86;21187;-82
2021/03/09 04:32:34;;;;;;;1.00;0.90;;;;;;;-2.84;63.19;100539.81;1648810;85;21163;-82
2021/03/09 04:35:01;;;;;;;1.80;1.37;;;;;;;-2.80;63.08;100536.06;1650032;85;21060;-83
2021/03/09 04:37:31;;;;;;;2.67;1.40;;;;;;;-2.80;62.92;100539.98;1625178;85;21163;-83
2021/03/09 04:39:58;;;;;;;1.90;1.70;;;;;;;-2.82;62.83;100540.07;1655411;85;21146;-80
2021/03/09 04:42:25;;;;;;;4.53;1.73;;;;;;;-2.84;62.96;100543.72;1648426;85;21653;-84
2021/03/09 04:44:53;;;;;;;1.93;1.80;;;;;;;-2.79;62.98;100546.41;1590810;81;58176;-82
2021/03/09 04:47:20;;;;;;;;;;;;;;;-2.71;62.71;100558.97;1637969;86;21614;-81
2021/03/09 04:49:47;;;;;;;1.47;1.27;;;;;;;-2.68;62.40;100554.84;1633490;86;20302;-82
2021/03/09 04:52:15;;;;;;;1.40;1.30;;;;;;;-2.68;62.28;100556.14;1601434;88;21208;-80
2021/03/09 04:54:43;;;;;;;4.10;1.03;;;;;;;-2.72;62.22;100552.06;1604777;88;21892;-80
2021/03/09 04:57:10;;;;;;;1.77;1.67;;;;;;;-2.82;62.57;100547.90;1593882;88;21065;-81
2021/03/09 04:59:37;;;;;;;1.77;1.67;;;;;;;-2.82;62.60;100547.90;1604549;88;21164;-82
2021/03/09 05:02:04;;;;;;;3.43;2.17;;;;;;;-2.81;62.32;100550.03;1603949;88;21236;-82
2021/03/09 05:04:32;;;;;;;3.87;1.77;;;;;;;-2.78;62.02;100553.77;1611179;87;21334;-83
2021/03/09 05:07:01;;;;;;;2.90;1.97;;;;;;;-2.74;62.03;100564.37;1618248;87;21212;-80
2021/03/09 05:09:33;;;;;;;1.67;1.50;;;;;;;-2.69;61.73;100571.45;1632166;86;21176;-82
2021/03/09 05:12:02;;;;;;;2.07;1.80;;;;;;;-2.64;61.44;100571.97;1619921;87;21083;-83
2021/03/09 05:14:31;;;;;;;3.70;2.90;;;;;;;-2.59;61.41;100575.13;1643635;86;21170;-82
2021/03/09 05:16:58;;;;;;;3.87;2.27;;;;;;;-2.62;61.31;100572.73;1643325;85;21254;-83
2021/03/09 05:19:25;;;;;;;3.47;1.87;;;;;;;-2.58;61.42;100575.95;1634850;85;21530;-81
2021/03/09 05:21:52;;;;;;;;;;;;;;;-2.62;61.41;100584.48;1641185;85;21194;-83
2021/03/09 05:24:19;;;;;;;5.45;1.77;;;;;;;-2.62;61.48;100588.84;1612540;84;20180;-82
2021/03/09 05:26:46;;;;;;;2.70;2.10;;;;;;;-2.72;61.90;100595.59;1606803;87;21262;-82
2021/03/09 05:29:13;;;;;;;2.60;1.70;;;;;;;-2.70;61.78;100601.55;1603343;87;21238;-82
2021/03/09 05:31:40;;;;;;;;;;;;;;;-2.74;61.56;100600.90;1607891;87;21251;-82
2021/03/09 05:34:07;;;;;;;2.97;1.40;;;;;;;-2.79;61.55;100606.41;1614612;85;20376;-83
2021/03/09 05:36:35;;;;;;;3.70;1.90;;;;;;;-2.76;61.03;100610.59;1616067;87;21388;-80
2021/03/09 05:39:03;;;;;;;2.43;2.13;;;;;;;-2.78;60.91;100617.69;1620823;87;21241;-82
2021/03/09 05:41:30;;;;;;;2.43;1.80;;;;;;;-2.73;60.47;100619.55;1617528;84;21175;-81
2021/03/09 05:43:58;;;;;;;3.23;2.27;;;;;;;-2.71;60.28;100625.50;1631572;87;21221;-83
2021/03/09 05:46:25;;;;;;;2.33;1.37;;;;;;;-2.70;60.31;100619.81;1597328;87;21265;-83
2021/03/09 05:48:54;;;;;;;2.50;1.47;;;;;;;-2.72;60.47;100628.20;1606758;87;21266;-82
2021/03/09 05:51:29;;;;;;;1.57;1.30;;;;;;;-2.66;59.92;100639.08;1632756;86;21218;-84
2021/03/09 05:53:57;;;;;;;2.43;1.63;;;;;;;-2.67;60.74;100638.72;1633656;86;21237;-83
2021/03/09 05:56:37;;;;;;;3.03;2.00;;;;;;;-2.62;60.45;100644.95;1612599;85;21563;-81
2021/03/09 05:59:03;;;;;;;;;;;;;;;-2.65;60.32;100647.30;1626690;87;21200;-81
2021/03/09 06:01:32;;;;;;;3.43;1.60;;;;;;;-2.72;60.68;100656.91;1615709;87;20225;-82
2021/03/09 06:03:59;;;;;;;3.40;2.80;;;;;;;-2.95;60.90;100663.07;1613306;87;21774;-82
2021/03/09 06:06:27;;;;;;;3.03;2.70;;;;;;;-3.05;61.64;100663.23;1611330;87;21203;-82
2021/03/09 06:08:55;;;;;;;4.17;3.00;;;;;;;-3.58;61.99;100599.05;1600124;87;22293;-81
2021/03/09 06:11:25;;;;;;;3.40;2.57;;;;;;;-3.14;62.40;100680.30;1601606;86;21696;-80
2021/03/09 06:13:54;;;;;;;;;;;;;;;-3.13;62.48;100676.74;1612552;87;21203;-80
2021/03/09 06:16:21;;;;;;;2.60;2.37;;;;;;;-3.12;62.39;100687.56;1568526;89;20320;-80
2021/03/09 06:18:55;;;;;;;3.00;2.80;;;;;;;-3.14;61.91;100683.73;1599351;87;21360;-81
2021/03/09 06:21:25;;;;;;;2.50;2.30;;;;;;;-3.11;61.54;100695.73;1600283;87;21207;-82
2021/03/09 06:23:53;;;;;;;3.27;2.97;;;;;;;-3.16;61.19;100692.59;1583639;86;21132;-81
2021/03/09 06:26:39;;;;;;;2.90;2.40;;;;;;;-3.60;61.20;100621.31;1600003;87;21191;-81
2021/03/09 06:29:15;;;;;;;5.03;2.17;;;;;;;-3.20;61.51;100701.50;1575620;88;21254;-80
2021/03/09 06:32:02;;;;;;;3.33;2.60;;;;;;;-3.70;60.94;100624.55;1585172;88;21229;-80
2021/03/09 06:34:32;;;;;;;2.08;1.95;;;;;;;-3.22;60.69;100704.22;1618344;85;21602;-82
2021/03/09 06:37:16;;;;;;;4.00;2.90;;;;;;;-3.26;60.14;100700.56;1620437;87;21618;-81
2021/03/09 06:39:47;;;;;;;3.73;2.13;;;;;;;-3.24;60.05;100707.83;1610081;87;21611;-81
2021/03/09 06:42:34;;;;;;;2.40;1.80;;;;;;;-3.32;60.14;100706.98;1604626;88;21966;-80
2021/03/09 06:45:07;;;;;;;4.40;3.20;;;;;;;-3.29;60.10;100715.11;1614543;85;21116;-81
2021/03/09 06:47:38;;;;;;;6.77;3.33;;;;;;;-3.35;60.21;100713.22;1607343;87;21191;-79
2021/03/09 06:50:13;;;;;;;2.97;2.67;;;;;;;-3.26;59.92;100712.30;1606242;88;21357;-81
2021/03/09 06:53:01;;;;;;;4.17;3.77;;;;;;;-3.19;59.87;100718.84;1611590;87;21298;-81
2021/03/09 06:55:48;;;;;;;7.43;3.73;;;;;;;-3.10;59.75;100722.67;1601638;88;21128;-80
2021/03/09 06:58:15;;;;;;;3.73;3.43;;;;;;;-3.02;59.72;100718.66;1588487;88;21214;-80
2021/03/09 07:00:43;;;;;;;3.30;2.80;;;;;;;-2.92;59.16;100717.64;1656839;85;21247;-81
2021/03/09 07:03:36;;;;;;;6.20;2.77;;;;;;;-2.79;58.19;100720.36;1649469;85;21203;-80
2021/03/09 07:06:05;;;;;;;2.73;2.23;;;;;;;-2.66;57.63;100726.98;1644334;86;21207;-82
2021/03/09 07:08:35;;;;;;;6.53;2.53;;;;;;;-2.53;56.96;100729.20;1636979;85;21164;-82
2021/03/09 07:11:03;;;;;;;4.43;3.23;;;;;;;-2.36;56.28;100742.05;1641387;85;21231;-81
2021/03/09 07:13:34;;;;;;;6.70;2.40;;;;;;;-2.29;56.09;100745.13;1643171;85;21209;-81
2021/03/09 07:16:01;;;;;;;2.70;2.43;;;;;;;-2.23;55.80;100736.08;1639561;85;21215;-82
2021/03/09 07:18:32;;;;;;;2.73;2.00;;;;;;;-3.76;54.45;100495.02;1643458;85;21339;-81
2021/03/09 07:20:59;;;;;;;3.90;1.40;;;;;;;-2.25;54.23;100737.47;1646294;85;21179;-82
2021/03/09 07:23:27;;;;;;;2.77;1.80;;;;;;;-2.24;54.20;100739.16;1652772;83;21121;-81
2021/03/09 07:25:58;;;;;;;2.60;1.87;;;;;;;-2.22;52.77;100735.98;1652313;85;21198;-81
2021/03/09 07:28:36;;;;;;;1.83;1.30;;;;;;;-2.24;52.50;100736.55;1650410;85;21185;-82
2021/03/09 07:31:07;;;;;;;2.00;1.77;;;;;;;-2.29;51.72;100738.60;1654542;85;21461;-81
2021/03/09 07:33:36;;;;;;;4.87;1.90;;;;;;;-2.30;52.11;100746.52;1648483;84;21603;-81
2021/03/09 07:36:06;;;;;;;3.07;1.97;;;;;;;-2.38;52.79;100743.09;1646757;85;21156;-81
2021/03/09 07:38:34;;;;;;;2.53;1.50;;;;;;;-2.35;52.70;100748.13;1659025;84;21179;-82
2021/03/09 07:41:02;;;;;;;2.13;1.93;;;;;;;-2.30;52.86;100737.38;1629874;86;21187;-82
2021/03/09 07:43:30;;;;;;;4.27;3.00;;;;;;;-2.19;52.33;100730.55;1640093;85;21176;-82
2021/03/09 07:45:58;;;;;;;7.20;1.93;;;;;;;-2.01;51.82;100730.34;1650854;83;21061;-81
2021/03/09 07:48:25;;;;;;;4.75;1.85;;;;;;;-1.85;51.38;100729.70;1675932;84;21211;-81
2021/03/09 07:50:52;;;;;;;2.27;1.87;;;;;;;-1.74;50.65;100727.72;1670434;81;21228;-78
2021/03/09 07:53:24;;;;;;;3.50;1.85;;;;;;;-1.66;49.97;100727.22;1645615;85;21203;-82
2021/03/09 07:56:12;;;;;;;1.90;1.70;;;;;;;-1.66;50.42;100725.43;1654637;84;21662;-83
2021/03/09 07:58:51;;;;;;;2.90;2.27;;;;;;;-1.59;50.50;100731.11;1823179;77;22871;-83
2021/03/09 08:01:18;;;;;;;3.10;1.93;;;;;;;-1.72;50.76;100734.98;1778212;78;21225;-82
2021/03/09 08:03:49;;;;;;;2.30;1.50;;;;;;;-1.83;52.35;100731.78;1713832;81;21369;-82
2021/03/09 08:06:20;;;;;;;4.07;1.77;;;;;;;-2.13;53.92;100718.05;1690167;82;21354;-84
2021/03/09 08:08:55;;;;;;;1.73;1.40;;;;;;;-2.09;55.15;100744.34;1718432;82;21185;-83
2021/03/09 08:11:36;;;;;;;2.03;1.73;;;;;;;-2.42;57.11;100751.57;1712753;80;21212;-84
2021/03/09 08:17:37;;;;;;;3.37;1.83;;;;;;;-2.98;60.05;100751.45;1722249;82;21311;-84
2021/03/09 08:20:57;;;;;;;3.43;2.67;;;;;;;-3.06;60.76;100752.38;1718845;82;21282;-84
2021/03/09 08:24:03;;;;;;;3.73;2.10;;;;;;;-3.09;59.64;100751.72;1679371;83;21237;-85
2021/03/09 08:26:49;;;;;;;1.73;1.63;;;;;;;-3.03;59.00;100758.73;1689045;83;21128;-83
2021/03/09 08:29:40;;;;;;;4.77;3.23;;;;;;;-3.05;59.28;100755.37;1690915;83;21192;-84
2021/03/09 08:32:28;;;;;;;4.23;3.40;;;;;;;-3.79;59.88;100640.23;1676035;84;21180;-82
2021/03/09 08:35:18;;;;;;;4.00;3.60;;;;;;;-3.03;60.35;100758.73;1648279;83;21128;-82
2021/03/09 08:37:49;;;;;;;11.87;8.73;;;;;;;-2.92;60.37;100762.46;1665316;84;21319;-82
2021/03/09 08:40:22;;;;;;;7.30;4.33;;;;;;;-2.80;60.16;100757.83;1684297;84;21207;-82
2021/03/09 08:43:12;;;;;;;4.72;3.60;;;;;;;-2.74;58.70;100770.50;1680640;83;21201;-82
2021/03/09 08:45:54;;;;;;;2.83;1.80;;;;;;;-2.73;58.55;100763.06;1698858;83;21451;-82
2021/03/09 08:48:49;;;;;;;6.80;3.47;;;;;;;-2.72;57.18;100768.64;1694893;83;21351;-81
2021/03/09 08:53:36;;;;;;;2.70;2.40;;;;;;;-2.57;57.17;100761.18;1832700;76;23120;-81
2021/03/09 08:56:06;;;;;;;2.70;2.03;;;;;;;-2.56;57.80;100766.78;1821413;75;21052;-81
2021/03/09 08:58:39;;;;;;;2.73;2.27;;;;;;;-2.51;56.49;100771.71;1782966;78;21167;-81
2021/03/09 09:01:09;;;;;;;3.47;3.17;;;;;;;-2.56;56.71;100777.22;1758747;77;21683;-80
2021/03/09 09:03:39;;;;;;;3.37;1.87;;;;;;;-2.59;56.51;100772.18;1790371;78;21424;-80
2021/03/09 09:06:08;;;;;;;3.17;1.90;;;;;;;-2.67;56.17;100778.34;1778854;79;21199;-80
2021/03/09 09:08:35;;;;;;;7.17;3.93;;;;;;;-2.74;54.64;100770.03;1777769;79;21230;-80
2021/03/09 09:11:03;;;;;;;4.17;2.97;;;;;;;-2.83;54.26;100782.79;1774872;79;21607;-80
2021/03/09 09:13:33;;;;;;;3.17;2.00;;;;;;;-2.92;54.83;100779.42;1787824;79;21148;-82
2021/03/09 09:16:10;;;;;;;3.73;2.00;;;;;;;-2.90;54.86;100782.77;1751499;79;21410;-80
2021/03/09 09:18:52;;;;;;;1.73;1.63;;;;;;;-2.77;54.45;100775.89;1797541;77;23129;-81
2021/03/09 09:21:19;;;;;;;1.97;1.87;;;;;;;-2.68;53.68;100788.39;1767406;79;21207;-80
2021/03/09 09:23:49;;;;;;;2.27;1.63;;;;;;;-2.55;53.23;100793.24;1729148;79;21457;-80
2021/03/09 09:26:16;;;;;;;1.80;1.60;;;;;;;-2.43;53.65;100793.43;1721732;81;21187;-81
2021/03/09 09:28:43;;;;;;;1.30;1.20;;;;;;;-2.32;53.63;100788.87;1726353;81;21156;-81
2021/03/09 09:31:19;;;;;;;2.20;2.00;;;;;;;-2.16;53.39;100799.58;1689401;83;21214;-82
2021/03/09 09:33:55;;;;;;;3.33;2.33;;;;;;;-2.00;51.69;100797.31;1660634;85;21032;-81
2021/03/09 09:36:32;;;;;;;2.80;2.10;;;;;;;-2.06;52.69;100792.48;1662943;85;21141;-84
2021/03/09 09:39:00;;;;;;;4.93;2.50;;;;;;;-2.91;52.02;100664.55;1681540;83;21203;-82
2021/03/09 09:41:27;;;;;;;2.83;2.10;;;;;;;-1.96;52.17;100796.18;1664179;85;21334;-81
2021/03/09 09:43:56;;;;;;;3.43;2.87;;;;;;;-1.84;52.73;100794.11;1642086;86;21368;-81
2021/03/09 09:46:32;;;;;;;4.27;2.93;;;;;;;-1.68;52.46;100792.66;1660401;84;21134;-81
2021/03/09 09:49:01;;;;;;;5.57;3.07;;;;;;;-1.60;51.11;100803.92;1655938;85;21171;-80
2021/03/09 09:54:13;;;;;;;2.43;1.83;;;;;;;-1.51;50.27;100790.27;1773639;79;22419;-83
2021/03/09 09:56:42;;;;;;;2.20;2.10;;;;;;;-1.40;49.82;100807.40;1702782;80;21403;-82
2021/03/09 09:59:26;;;;;;;2.83;1.80;;;;;;;-1.40;48.40;100796.94;1690236;82;21190;-82
2021/03/09 10:01:54;;;;;;;2.03;1.40;;;;;;;-1.27;48.39;100810.54;1708967;82;21088;-82
2021/03/09 10:04:32;;;;;;;2.07;1.50;;;;;;;-1.22;48.46;100817.14;1683492;83;21155;-82
2021/03/09 10:06:59;;;;;;;1.05;1.05;;;;;;;-1.21;47.29;100810.13;1712978;82;21296;-82
2021/03/09 10:09:28;;;;;;;4.17;1.63;;;;;;;-1.22;46.86;100809.30;1722261;81;21172;-82
2021/03/09 10:12:39;;;;;;;2.40;1.73;;;;;;;-1.25;46.38;100807.35;1707743;82;21091;-83
2021/03/09 10:15:12;;;;;;;2.53;1.87;;;;;;;-1.33;46.74;100802.63;1713885;83;21612;-82
2021/03/09 10:17:46;;;;;;;1.50;1.40;;;;;;;-1.31;47.13;100802.05;1702805;82;21305;-82
2021/03/09 10:20:20;;;;;;;1.23;0.93;;;;;;;-1.23;47.08;100808.09;1708498;82;21183;-82
2021/03/09 10:23:03;;;;;;;2.07;1.53;;;;;;;-1.23;46.06;100804.99;1677941;83;21107;-82
2021/03/09 10:25:31;;;;;;;3.67;2.27;;;;;;;-1.19;46.14;100813.03;1685653;83;21179;-83
2021/03/09 10:28:04;;;;;;;2.13;1.90;;;;;;;-1.14;45.71;100804.87;1684818;83;21605;-82
2021/03/09 10:30:40;;;;;;;3.50;3.10;;;;;;;-1.06;45.64;100812.20;1689522;83;21186;-82
2021/03/09 10:33:11;;;;;;;2.20;1.70;;;;;;;-1.07;44.52;100824.45;1683726;82;21489;-82
2021/03/09 10:36:12;;;;;;;2.60;1.17;;;;;;;-1.10;45.13;100816.80;1684660;83;21183;-83
2021/03/09 10:38:41;;;;;;;1.25;1.07;;;;;;;-1.17;44.36;100815.52;1684185;81;21147;-83
2021/03/09 10:41:25;;;;;;;1.70;1.60;;;;;;;-1.22;44.59;100815.01;1663236;84;21212;-83
2021/03/09 10:43:55;;;;;;;5.43;1.57;;;;;;;-1.18;45.06;100811.25;1688202;83;22409;-83
2021/03/09 10:46:25;;;;;;;1.80;1.60;;;;;;;-1.05;45.63;100815.20;1681068;82;21413;-83
2021/03/09 10:49:22;;;;;;;2.67;1.90;;;;;;;-0.90;46.25;100815.97;1680409;80;21120;-86
2021/03/09 10:52:11;;;;;;;1.57;1.03;;;;;;;-0.83;47.31;100820.69;1683740;81;21278;-82
2021/03/09 11:18:45;;;;;;;1.57;1.47;;;;;;;-1.54;51.34;100845.38;1624543;83;21200;-83
2021/03/09 11:34:33;;;;;;;2.00;1.37;;;;;;;-1.51;48.73;100841.72;1596502;87;21271;31
2021/03/09 11:37:45;;;;;;;2.10;1.77;;;;;;;-1.49;48.38;100835.92;1500093;93;21352;-85
2021/03/09 11:44:30;;;;;;;2.83;2.30;;;;;;;-1.38;47.59;100837.37;1543258;89;21307;-84
2021/03/09 11:47:49;;;;;;;2.67;1.70;;;;;;;-1.45;47.24;100838.27;1536433;91;21152;-84
2021/03/09 12:20:14;;;;;;;2.63;1.40;;;;;;;-1.45;44.25;100832.17;1585597;86;21158;-85
2021/03/09 12:22:49;;;;;;;1.80;1.70;;;;;;;-1.40;43.81;100843.18;1588876;87;21094;-83
2021/03/09 12:26:00;;;;;;;3.23;2.53;;;;;;;-1.33;43.64;100840.55;1579513;89;21193;-83
2021/03/09 12:29:12;;;;;;;4.70;2.90;;;;;;;-1.25;43.84;100842.66;1572049;86;21607;-84
2021/03/09 12:32:25;;;;;;;3.03;2.10;;;;;;;-1.11;43.25;100843.92;1568024;83;21169;-83
2021/03/09 12:35:24;;;;;;;1.50;1.30;;;;;;;-1.04;42.31;100842.55;1606895;86;21244;-85
2021/03/09 12:38:37;;;;;;;2.70;2.27;;;;;;;-0.89;41.03;100845.11;1599113;88;21345;-84
2021/03/09 12:41:15;;;;;;;2.77;2.53;;;;;;;-0.91;41.28;100845.68;1580502;89;21158;-83
2021/03/09 12:43:52;;;;;;;4.30;2.47;;;;;;;-0.97;41.31;100848.71;1578822;87;21503;-83
2021/03/09 12:47:00;;;;;;;2.60;2.30;;;;;;;-0.94;41.71;100849.80;1676141;84;21164;-84
2021/03/09 12:50:23;;;;;;;2.83;2.27;;;;;;;-0.86;41.41;100851.45;1664422;84;21295;-84
2021/03/09 12:57:08;;;;;;;2.95;1.87;;;;;;;-1.05;41.19;100859.69;1691377;82;21172;-84
2021/03/09 13:00:25;;;;;;;1.30;1.20;;;;;;;-1.24;41.34;100858.27;1681382;82;21158;-83
2021/03/09 13:03:35;;;;;;;2.40;1.60;;;;;;;-1.43;41.80;100866.45;1667423;84;21169;-84
2021/03/09 13:06:06;;;;;;;4.37;2.50;;;;;;;-1.53;42.44;100864.04;1716680;82;21157;-83
2021/03/09 13:09:08;;;;;;;1.73;1.60;;;;;;;-1.60;42.83;100871.45;1685296;82;21093;-83
2021/03/09 13:12:25;;;;;;;2.77;1.57;;;;;;;-1.59;43.19;100868.36;1659611;81;21130;-84
2021/03/09 13:15:44;;;;;;;1.03;0.93;;;;;;;-1.55;42.84;100865.08;1636044;86;21232;-85
2021/03/09 13:18:32;;;;;;;2.57;0.90;;;;;;;-1.47;41.49;100868.91;1633127;84;21158;-88
2021/03/09 13:21:30;;;;;;;2.77;1.30;;;;;;;-1.39;40.48;100869.72;1671477;84;21212;-85
2021/03/09 13:24:09;;;;;;;1.27;1.20;;;;;;;-1.33;40.11;100868.00;1667675;83;21078;-84
2021/03/09 13:26:53;;;;;;;5.47;3.47;;;;;;;-1.28;39.33;100877.72;1673786;84;21289;-84